CSN186 VNKT-ZGGG
Flight info
| Callsign | CSN186 |
|---|---|
| Flight time | N/A |
| Altitude | 33000 |
| Route | AHALE R344 BIRAT A467 KHR R344 RAJ A201 LSO A599 GULOT W146 XSJ W148 LXI A599 GYA |
| Aircraft | B752/M-VGDW/C |
Departure
| Time | 2026-05-06 11:58 |
|---|---|
| Airport | Tribhuvan International Airport (VNKT) |
Arrival
| Time | N/A |
|---|---|
| Airport | Guangzhou Baiyun International Airport (ZGGG) |
| Time | Latitude | Longitude | Altitude | Speed | Heading |
|---|---|---|---|---|---|
| 2026-05-06 11:36 | 27.70032 | 85.35866 | 4401 ft | 0 kts | 292° |
| 2026-05-06 11:51 | 27.70030 | 85.35871 | 4401 ft | 2 kts | 292° |
| 2026-05-06 11:51 | 27.70023 | 85.35892 | 4401 ft | 2 kts | 292° |
| 2026-05-06 11:51 | 27.70019 | 85.35902 | 4401 ft | 2 kts | 292° |
| 2026-05-06 11:52 | 27.70012 | 85.35924 | 4401 ft | 2 kts | 291° |
| 2026-05-06 11:52 | 27.70005 | 85.35939 | 4401 ft | 2 kts | 316° |
| 2026-05-06 11:52 | 27.69997 | 85.35945 | 4401 ft | 2 kts | 345° |
| 2026-05-06 11:52 | 27.69984 | 85.35946 | 4401 ft | 1 kts | 17° |
| 2026-05-06 11:53 | 27.69979 | 85.35944 | 4401 ft | 0 kts | 22° |
| 2026-05-06 11:54 | 27.69987 | 85.35947 | 4401 ft | 1 kts | 19° |
| 2026-05-06 11:54 | 27.70001 | 85.35952 | 4401 ft | 5 kts | 20° |
| 2026-05-06 11:55 | 27.70073 | 85.35985 | 4401 ft | 19 kts | 21° |
| 2026-05-06 11:55 | 27.70332 | 85.36101 | 4401 ft | 37 kts | 22° |
| 2026-05-06 11:55 | 27.70545 | 85.36206 | 4401 ft | 25 kts | 36° |
| 2026-05-06 11:55 | 27.70636 | 85.36359 | 4401 ft | 23 kts | 27° |
| 2026-05-06 11:56 | 27.70784 | 85.36426 | 4401 ft | 21 kts | 23° |
| 2026-05-06 11:56 | 27.70867 | 85.36523 | 4401 ft | 15 kts | 55° |
| 2026-05-06 11:56 | 27.70922 | 85.36501 | 4401 ft | 8 kts | 279° |
| 2026-05-06 11:56 | 27.70874 | 85.36465 | 4401 ft | 18 kts | 199° |
| 2026-05-06 11:57 | 27.70587 | 85.36337 | 4401 ft | 71 kts | 201° |
| 2026-05-06 11:57 | 27.70201 | 85.36164 | 4402 ft | 104 kts | 202° |
| 2026-05-06 11:57 | 27.69387 | 85.35802 | 4402 ft | 149 kts | 204° |
| 2026-05-06 11:57 | 27.67985 | 85.35178 | 4833 ft | 163 kts | 205° |
| 2026-05-06 11:58 | 27.67294 | 85.34865 | 5147 ft | 162 kts | 205° |
| 2026-05-06 11:58 | 27.66079 | 85.33795 | 5392 ft | 177 kts | 251° |
| 2026-05-06 11:58 | 27.65997 | 85.32455 | 5807 ft | 177 kts | 285° |
| 2026-05-06 11:58 | 27.66295 | 85.31165 | 6414 ft | 169 kts | 285° |
| 2026-05-06 11:59 | 27.66620 | 85.29894 | 6853 ft | 170 kts | 287° |
| 2026-05-06 11:59 | 27.66976 | 85.28641 | 7261 ft | 168 kts | 290° |
| 2026-05-06 11:59 | 27.67479 | 85.27410 | 7473 ft | 177 kts | 301° |
| 2026-05-06 11:59 | 27.67975 | 85.26666 | 7614 ft | 183 kts | 315° |
| 2026-05-06 12:00 | 27.69609 | 85.26000 | 7760 ft | 204 kts | 5° |
| 2026-05-06 12:00 | 27.70504 | 85.26352 | 8012 ft | 207 kts | 30° |
| 2026-05-06 12:00 | 27.71819 | 85.27937 | 8486 ft | 211 kts | 49° |
| 2026-05-06 12:00 | 27.72411 | 85.28799 | 8715 ft | 212 kts | 51° |
| 2026-05-06 12:01 | 27.73465 | 85.30690 | 9190 ft | 215 kts | 61° |
| 2026-05-06 12:01 | 27.73865 | 85.31725 | 9418 ft | 216 kts | 68° |
| 2026-05-06 12:01 | 27.74320 | 85.33943 | 9872 ft | 219 kts | 83° |
| 2026-05-06 12:01 | 27.74349 | 85.35076 | 10097 ft | 220 kts | 91° |
| 2026-05-06 12:02 | 27.74128 | 85.36777 | 10469 ft | 220 kts | 103° |
| 2026-05-06 12:02 | 27.73591 | 85.38393 | 10817 ft | 221 kts | 116° |
| 2026-05-06 12:02 | 27.72759 | 85.39838 | 11159 ft | 221 kts | 128° |
| 2026-05-06 12:02 | 27.71657 | 85.41058 | 11500 ft | 222 kts | 141° |
| 2026-05-06 12:03 | 27.69870 | 85.42204 | 11942 ft | 223 kts | 158° |
| 2026-05-06 12:03 | 27.68891 | 85.42542 | 12153 ft | 223 kts | 167° |
| 2026-05-06 12:03 | 27.67336 | 85.42880 | 12241 ft | 239 kts | 159° |
| 2026-05-06 12:03 | 27.65916 | 85.43955 | 12248 ft | 260 kts | 127° |
| 2026-05-06 12:04 | 27.65047 | 85.45811 | 12330 ft | 281 kts | 107° |
| 2026-05-06 12:04 | 27.64454 | 85.48009 | 12449 ft | 303 kts | 105° |
| 2026-05-06 12:04 | 27.63838 | 85.50369 | 12479 ft | 329 kts | 105° |
| 2026-05-06 12:04 | 27.63187 | 85.52940 | 12502 ft | 355 kts | 104° |
| 2026-05-06 12:05 | 27.62258 | 85.56657 | 12757 ft | 380 kts | 105° |
| 2026-05-06 12:05 | 27.61651 | 85.58491 | 13331 ft | 380 kts | 114° |
| 2026-05-06 12:05 | 27.60222 | 85.61023 | 13957 ft | 387 kts | 129° |
| 2026-05-06 12:05 | 27.58234 | 85.63059 | 14585 ft | 393 kts | 144° |
| 2026-05-06 12:06 | 27.55799 | 85.64475 | 15202 ft | 399 kts | 160° |
| 2026-05-06 12:06 | 27.53100 | 85.65190 | 15810 ft | 404 kts | 171° |
| 2026-05-06 12:06 | 27.50367 | 85.65931 | 16417 ft | 408 kts | 159° |
| 2026-05-06 12:06 | 27.47069 | 85.68053 | 17194 ft | 413 kts | 139° |
| 2026-05-06 12:07 | 27.45329 | 85.69957 | 17677 ft | 416 kts | 130° |
| 2026-05-06 12:07 | 27.44205 | 85.71574 | 18036 ft | 418 kts | 123° |
| 2026-05-06 12:07 | 27.43192 | 85.73421 | 18405 ft | 420 kts | 118° |
| 2026-05-06 12:07 | 27.42531 | 85.74740 | 18659 ft | 422 kts | 118° |
| 2026-05-06 12:08 | 27.41000 | 85.77563 | 19201 ft | 427 kts | 121° |
| 2026-05-06 12:08 | 27.39208 | 85.80613 | 19780 ft | 432 kts | 123° |
| 2026-05-06 12:08 | 27.38071 | 85.82493 | 20122 ft | 435 kts | 123° |
| 2026-05-06 12:08 | 27.35769 | 85.86229 | 20795 ft | 441 kts | 124° |
| 2026-05-06 12:09 | 27.34577 | 85.88143 | 21126 ft | 444 kts | 124° |
| 2026-05-06 12:09 | 27.32220 | 85.91908 | 21766 ft | 449 kts | 124° |
| 2026-05-06 12:09 | 27.31017 | 85.93821 | 22082 ft | 452 kts | 124° |
| 2026-05-06 12:09 | 27.29181 | 85.96738 | 22553 ft | 456 kts | 124° |
| 2026-05-06 12:10 | 27.26720 | 86.00642 | 23163 ft | 462 kts | 125° |
| 2026-05-06 12:10 | 27.24867 | 86.03578 | 23618 ft | 465 kts | 125° |
| 2026-05-06 12:10 | 27.23002 | 86.06531 | 24057 ft | 469 kts | 125° |
| 2026-05-06 12:10 | 27.21100 | 86.09540 | 24489 ft | 473 kts | 125° |
| 2026-05-06 12:11 | 27.19198 | 86.12557 | 24915 ft | 476 kts | 125° |
| 2026-05-06 12:11 | 27.17314 | 86.15592 | 25334 ft | 480 kts | 125° |
| 2026-05-06 12:11 | 27.16021 | 86.17675 | 25607 ft | 482 kts | 125° |
| 2026-05-06 12:11 | 27.14126 | 86.20725 | 26004 ft | 485 kts | 125° |
| 2026-05-06 12:12 | 27.11543 | 86.24876 | 26523 ft | 490 kts | 125° |
| 2026-05-06 12:12 | 27.09597 | 86.28001 | 26919 ft | 492 kts | 126° |
| 2026-05-06 12:12 | 27.07631 | 86.31157 | 27293 ft | 496 kts | 126° |
| 2026-05-06 12:12 | 27.05654 | 86.34327 | 27658 ft | 499 kts | 126° |
| 2026-05-06 12:13 | 27.04337 | 86.36439 | 27898 ft | 501 kts | 126° |
| 2026-05-06 12:13 | 27.02341 | 86.39637 | 28306 ft | 502 kts | 126° |
| 2026-05-06 12:13 | 27.00334 | 86.42850 | 28738 ft | 503 kts | 127° |
| 2026-05-06 12:13 | 26.98321 | 86.46071 | 29145 ft | 504 kts | 127° |
| 2026-05-06 12:14 | 26.95643 | 86.50349 | 29679 ft | 505 kts | 127° |
| 2026-05-06 12:14 | 26.93642 | 86.53545 | 30065 ft | 506 kts | 127° |
| 2026-05-06 12:14 | 26.91612 | 86.56782 | 30437 ft | 507 kts | 127° |
| 2026-05-06 12:14 | 26.89592 | 86.60003 | 30847 ft | 506 kts | 127° |
| 2026-05-06 12:15 | 26.88260 | 86.62126 | 31188 ft | 504 kts | 127° |
| 2026-05-06 12:15 | 26.86230 | 86.65356 | 31644 ft | 502 kts | 128° |
| 2026-05-06 12:15 | 26.83554 | 86.69585 | 32118 ft | 502 kts | 128° |
| 2026-05-06 12:15 | 26.81537 | 86.72768 | 32481 ft | 501 kts | 128° |
| 2026-05-06 12:16 | 26.80182 | 86.74906 | 32715 ft | 501 kts | 128° |
| 2026-05-06 12:16 | 26.77515 | 86.79110 | 32995 ft | 502 kts | 128° |
| 2026-05-06 12:16 | 26.73486 | 86.85453 | 32991 ft | 499 kts | 128° |
| 2026-05-06 12:17 | 26.70132 | 86.90727 | 32993 ft | 498 kts | 128° |
| 2026-05-06 12:17 | 26.66130 | 86.97011 | 32993 ft | 498 kts | 128° |
| 2026-05-06 12:18 | 26.62126 | 87.03291 | 32993 ft | 497 kts | 128° |
| 2026-05-06 12:18 | 26.57429 | 87.10645 | 32993 ft | 497 kts | 128° |
| 2026-05-06 12:19 | 26.54089 | 87.15868 | 32994 ft | 496 kts | 128° |
| 2026-05-06 12:19 | 26.49813 | 87.21828 | 33001 ft | 492 kts | 139° |
| 2026-05-06 12:20 | 26.44286 | 87.26180 | 33002 ft | 485 kts | 157° |
| 2026-05-06 12:20 | 26.38092 | 87.29087 | 32994 ft | 483 kts | 161° |
| 2026-05-06 12:21 | 26.31839 | 87.31616 | 32997 ft | 480 kts | 166° |
| 2026-05-06 12:21 | 26.24402 | 87.34141 | 32995 ft | 480 kts | 166° |
| 2026-05-06 12:22 | 26.19088 | 87.35955 | 32995 ft | 480 kts | 166° |
| 2026-05-06 12:22 | 26.11655 | 87.38490 | 32995 ft | 480 kts | 166° |
| 2026-05-06 12:23 | 26.06365 | 87.40293 | 32995 ft | 480 kts | 166° |
| 2026-05-06 12:23 | 25.98872 | 87.42844 | 32995 ft | 480 kts | 166° |
| 2026-05-06 12:24 | 25.92532 | 87.45001 | 32995 ft | 480 kts | 166° |
| 2026-05-06 12:24 | 25.86132 | 87.47175 | 32996 ft | 480 kts | 166° |
| 2026-05-06 12:25 | 25.79735 | 87.49345 | 32996 ft | 480 kts | 166° |
| 2026-05-06 12:25 | 25.74424 | 87.51145 | 32996 ft | 480 kts | 166° |
| 2026-05-06 12:26 | 25.68082 | 87.53292 | 32996 ft | 480 kts | 166° |
| 2026-05-06 12:26 | 25.61832 | 87.55878 | 33003 ft | 485 kts | 154° |
| 2026-05-06 12:27 | 25.56317 | 87.60190 | 32999 ft | 490 kts | 144° |
| 2026-05-06 12:27 | 25.50997 | 87.64877 | 32969 ft | 490 kts | 144° |
| 2026-05-06 12:28 | 25.44789 | 87.70377 | 32920 ft | 490 kts | 144° |
| 2026-05-06 12:28 | 25.39443 | 87.75117 | 32867 ft | 490 kts | 144° |
| 2026-05-06 12:29 | 25.34140 | 87.79818 | 32823 ft | 490 kts | 144° |
| 2026-05-06 12:29 | 25.29713 | 87.83740 | 32805 ft | 490 kts | 144° |
| 2026-05-06 12:30 | 25.23507 | 87.89230 | 32803 ft | 490 kts | 144° |
| 2026-05-06 12:30 | 25.18150 | 87.93964 | 32803 ft | 490 kts | 144° |
| 2026-05-06 12:31 | 25.12858 | 87.98634 | 32803 ft | 490 kts | 144° |
| 2026-05-06 12:31 | 25.08401 | 88.02563 | 32803 ft | 489 kts | 144° |
| 2026-05-06 12:32 | 25.02229 | 88.07999 | 32804 ft | 485 kts | 143° |
| 2026-05-06 12:32 | 24.97814 | 88.11883 | 32804 ft | 483 kts | 143° |
| 2026-05-06 12:33 | 24.91687 | 88.17267 | 32804 ft | 482 kts | 143° |
| 2026-05-06 12:33 | 24.86494 | 88.22009 | 32805 ft | 483 kts | 141° |
| 2026-05-06 12:34 | 24.82210 | 88.26003 | 32805 ft | 483 kts | 141° |
| 2026-05-06 12:34 | 24.76205 | 88.31592 | 32801 ft | 483 kts | 142° |
| 2026-05-06 12:35 | 24.71082 | 88.36352 | 32794 ft | 483 kts | 142° |
| 2026-05-06 12:35 | 24.65944 | 88.41122 | 32791 ft | 483 kts | 142° |
| 2026-05-06 12:36 | 24.60827 | 88.45866 | 32791 ft | 483 kts | 142° |
| 2026-05-06 12:36 | 24.55657 | 88.50652 | 32790 ft | 483 kts | 142° |
| 2026-05-06 12:37 | 24.50532 | 88.55393 | 32785 ft | 483 kts | 142° |
| 2026-05-06 12:37 | 24.45875 | 88.60760 | 32790 ft | 487 kts | 126° |
| 2026-05-06 12:38 | 24.42887 | 88.67450 | 32793 ft | 491 kts | 108° |
| 2026-05-06 12:38 | 24.41295 | 88.74751 | 32794 ft | 491 kts | 104° |
| 2026-05-06 12:39 | 24.39801 | 88.82071 | 32802 ft | 491 kts | 103° |
| 2026-05-06 12:39 | 24.38325 | 88.89374 | 32803 ft | 491 kts | 104° |
| 2026-05-06 12:40 | 24.37098 | 88.95450 | 32803 ft | 491 kts | 104° |
| 2026-05-06 12:40 | 24.35383 | 89.03934 | 32803 ft | 491 kts | 104° |
| 2026-05-06 12:41 | 24.33908 | 89.11212 | 32804 ft | 491 kts | 104° |
| 2026-05-06 12:41 | 24.32418 | 89.18544 | 32804 ft | 491 kts | 104° |
| 2026-05-06 12:42 | 24.30933 | 89.25835 | 32804 ft | 491 kts | 104° |
| 2026-05-06 12:42 | 24.29441 | 89.33144 | 32805 ft | 491 kts | 104° |
| 2026-05-06 12:43 | 24.27949 | 89.40430 | 32805 ft | 491 kts | 104° |
| 2026-05-06 12:43 | 24.26461 | 89.47679 | 32805 ft | 491 kts | 104° |
| 2026-05-06 12:44 | 24.24964 | 89.54958 | 32805 ft | 491 kts | 104° |
| 2026-05-06 12:44 | 24.23458 | 89.62256 | 32806 ft | 491 kts | 104° |
| 2026-05-06 12:45 | 24.21950 | 89.69548 | 32801 ft | 491 kts | 104° |
| 2026-05-06 12:46 | 24.19683 | 89.80475 | 32802 ft | 491 kts | 104° |
| 2026-05-06 12:46 | 24.18166 | 89.87765 | 32802 ft | 491 kts | 104° |
| 2026-05-06 12:47 | 24.16655 | 89.95008 | 32803 ft | 491 kts | 104° |
| 2026-05-06 12:47 | 24.15387 | 90.01070 | 32803 ft | 491 kts | 104° |
| 2026-05-06 12:48 | 24.13610 | 90.09548 | 32803 ft | 491 kts | 104° |
| 2026-05-06 12:48 | 24.12338 | 90.15599 | 32803 ft | 491 kts | 104° |
| 2026-05-06 12:49 | 24.10547 | 90.24101 | 32804 ft | 491 kts | 104° |
| 2026-05-06 12:49 | 24.09012 | 90.31364 | 32804 ft | 491 kts | 104° |
| 2026-05-06 12:50 | 24.07478 | 90.38607 | 32804 ft | 491 kts | 104° |
| 2026-05-06 12:50 | 24.05935 | 90.45853 | 32804 ft | 490 kts | 104° |
| 2026-05-06 12:51 | 24.04384 | 90.53098 | 32805 ft | 490 kts | 104° |
| 2026-05-06 12:51 | 24.02827 | 90.60358 | 32805 ft | 490 kts | 104° |
| 2026-05-06 12:52 | 24.01272 | 90.67588 | 32801 ft | 490 kts | 105° |
| 2026-05-06 12:52 | 23.99708 | 90.74842 | 32800 ft | 490 kts | 105° |
| 2026-05-06 12:53 | 23.98148 | 90.82057 | 32793 ft | 490 kts | 105° |
| 2026-05-06 12:53 | 23.96583 | 90.89286 | 32785 ft | 490 kts | 105° |
| 2026-05-06 12:54 | 23.95009 | 90.96533 | 32777 ft | 490 kts | 105° |
| 2026-05-06 12:54 | 23.93440 | 91.03743 | 32775 ft | 489 kts | 105° |
| 2026-05-06 12:55 | 23.91866 | 91.10962 | 32775 ft | 487 kts | 105° |
| 2026-05-06 12:55 | 23.90298 | 91.18134 | 32775 ft | 485 kts | 105° |
| 2026-05-06 12:56 | 23.88751 | 91.25292 | 32779 ft | 485 kts | 104° |
| 2026-05-06 12:56 | 23.87325 | 91.32466 | 32779 ft | 485 kts | 104° |
| 2026-05-06 12:57 | 23.85891 | 91.39645 | 32779 ft | 485 kts | 104° |
| 2026-05-06 12:57 | 23.84457 | 91.46805 | 32779 ft | 485 kts | 104° |
| 2026-05-06 12:58 | 23.83014 | 91.53991 | 32780 ft | 485 kts | 104° |
| 2026-05-06 12:58 | 23.81576 | 91.61131 | 32780 ft | 485 kts | 104° |
| 2026-05-06 12:59 | 23.80130 | 91.68300 | 32776 ft | 484 kts | 104° |
| 2026-05-06 12:59 | 23.78675 | 91.75491 | 32777 ft | 484 kts | 104° |
| 2026-05-06 13:00 | 23.77215 | 91.82686 | 32777 ft | 484 kts | 104° |
| 2026-05-06 13:00 | 23.75757 | 91.89856 | 32777 ft | 484 kts | 104° |
| 2026-05-06 13:01 | 23.74296 | 91.97020 | 32777 ft | 484 kts | 104° |
| 2026-05-06 13:01 | 23.72827 | 92.04209 | 32778 ft | 484 kts | 104° |
| 2026-05-06 13:02 | 23.71363 | 92.11354 | 32778 ft | 484 kts | 104° |
| 2026-05-06 13:02 | 23.69888 | 92.18536 | 32778 ft | 484 kts | 104° |
| 2026-05-06 13:03 | 23.68417 | 92.25677 | 32778 ft | 484 kts | 104° |
| 2026-05-06 13:03 | 23.66931 | 92.32876 | 32778 ft | 484 kts | 104° |
| 2026-05-06 13:04 | 23.65454 | 92.40015 | 32779 ft | 484 kts | 104° |
| 2026-05-06 13:04 | 23.63964 | 92.47198 | 32779 ft | 484 kts | 104° |
| 2026-05-06 13:05 | 23.62485 | 92.54313 | 32779 ft | 484 kts | 104° |
| 2026-05-06 13:05 | 23.60994 | 92.61466 | 32779 ft | 484 kts | 104° |
| 2026-05-06 13:06 | 23.59631 | 92.68681 | 32787 ft | 484 kts | 103° |
| 2026-05-06 13:06 | 23.58300 | 92.75884 | 32821 ft | 484 kts | 103° |
| 2026-05-06 13:07 | 23.56970 | 92.83055 | 32853 ft | 484 kts | 103° |
| 2026-05-06 13:07 | 23.55628 | 92.90266 | 32883 ft | 484 kts | 103° |
| 2026-05-06 13:08 | 23.54293 | 92.97427 | 32885 ft | 486 kts | 103° |
| 2026-05-06 13:08 | 23.52943 | 93.04643 | 32885 ft | 488 kts | 104° |
| 2026-05-06 13:09 | 23.51580 | 93.11910 | 32885 ft | 490 kts | 104° |
| 2026-05-06 13:09 | 23.50210 | 93.19194 | 32885 ft | 490 kts | 104° |
| 2026-05-06 13:10 | 23.48842 | 93.26448 | 32886 ft | 490 kts | 104° |
| 2026-05-06 13:10 | 23.47465 | 93.33735 | 32886 ft | 490 kts | 104° |
| 2026-05-06 13:11 | 23.46088 | 93.40998 | 32913 ft | 490 kts | 104° |
| 2026-05-06 13:11 | 23.44901 | 93.48306 | 32917 ft | 491 kts | 98° |
| 2026-05-06 13:12 | 23.44185 | 93.55694 | 32914 ft | 491 kts | 98° |
| 2026-05-06 13:12 | 23.43466 | 93.63095 | 32914 ft | 491 kts | 98° |
| 2026-05-06 13:13 | 23.42747 | 93.70508 | 32910 ft | 491 kts | 98° |
| 2026-05-06 13:13 | 23.42026 | 93.77901 | 32910 ft | 491 kts | 98° |
| 2026-05-06 13:14 | 23.41305 | 93.85268 | 32911 ft | 491 kts | 98° |
| 2026-05-06 13:14 | 23.40579 | 93.92659 | 32911 ft | 491 kts | 98° |
| 2026-05-06 13:15 | 23.39848 | 94.00061 | 32911 ft | 491 kts | 98° |
| 2026-05-06 13:15 | 23.39113 | 94.07466 | 32912 ft | 491 kts | 98° |
| 2026-05-06 13:16 | 23.38376 | 94.14858 | 32912 ft | 491 kts | 98° |
| 2026-05-06 13:16 | 23.37637 | 94.22225 | 32912 ft | 491 kts | 98° |
| 2026-05-06 13:17 | 23.36891 | 94.29633 | 32913 ft | 491 kts | 98° |
| 2026-05-06 13:17 | 23.36143 | 94.37028 | 32913 ft | 491 kts | 98° |
| 2026-05-06 13:18 | 23.35393 | 94.44408 | 32913 ft | 491 kts | 98° |
| 2026-05-06 13:18 | 23.34640 | 94.51781 | 32914 ft | 491 kts | 98° |
| 2026-05-06 13:19 | 23.33883 | 94.59153 | 32914 ft | 491 kts | 98° |
| 2026-05-06 13:19 | 23.33122 | 94.66529 | 32911 ft | 491 kts | 98° |
| 2026-05-06 13:20 | 23.32354 | 94.73940 | 32910 ft | 491 kts | 98° |
| 2026-05-06 13:20 | 23.31588 | 94.81306 | 32910 ft | 491 kts | 98° |
| 2026-05-06 13:21 | 23.30815 | 94.88693 | 32910 ft | 491 kts | 98° |
| 2026-05-06 13:21 | 23.30037 | 94.96096 | 32911 ft | 491 kts | 98° |
| 2026-05-06 13:22 | 23.29258 | 95.03487 | 32911 ft | 491 kts | 98° |
| 2026-05-06 13:22 | 23.28473 | 95.10892 | 32912 ft | 490 kts | 98° |
| 2026-05-06 13:23 | 23.27687 | 95.18280 | 32912 ft | 491 kts | 98° |
| 2026-05-06 13:23 | 23.26900 | 95.25633 | 32912 ft | 491 kts | 98° |
| 2026-05-06 13:24 | 23.26106 | 95.33028 | 32913 ft | 491 kts | 98° |
| 2026-05-06 13:24 | 23.25313 | 95.40380 | 32913 ft | 491 kts | 98° |
| 2026-05-06 13:25 | 23.24511 | 95.47772 | 32913 ft | 490 kts | 98° |
| 2026-05-06 13:25 | 23.23706 | 95.55171 | 32913 ft | 490 kts | 98° |
| 2026-05-06 13:26 | 23.22905 | 95.62499 | 32914 ft | 490 kts | 98° |
| 2026-05-06 13:26 | 23.22101 | 95.69814 | 32909 ft | 490 kts | 98° |
| 2026-05-06 13:27 | 23.21292 | 95.77150 | 32910 ft | 490 kts | 98° |
| 2026-05-06 13:27 | 23.20471 | 95.84557 | 32910 ft | 490 kts | 98° |
| 2026-05-06 13:28 | 23.19653 | 95.91911 | 32910 ft | 490 kts | 98° |
| 2026-05-06 13:28 | 23.18828 | 95.99290 | 32911 ft | 490 kts | 98° |
| 2026-05-06 13:29 | 23.18003 | 96.06647 | 32911 ft | 490 kts | 98° |
| 2026-05-06 13:29 | 23.17172 | 96.14021 | 32911 ft | 490 kts | 98° |
| 2026-05-06 13:30 | 23.16339 | 96.21382 | 32912 ft | 490 kts | 98° |
| 2026-05-06 13:30 | 23.15504 | 96.28728 | 32912 ft | 490 kts | 98° |
| 2026-05-06 13:31 | 23.14689 | 96.35870 | 32912 ft | 490 kts | 98° |
| 2026-05-06 13:31 | 23.13843 | 96.43247 | 32913 ft | 490 kts | 98° |
| 2026-05-06 13:32 | 23.12996 | 96.50607 | 32913 ft | 490 kts | 98° |
| 2026-05-06 13:32 | 23.12285 | 96.56763 | 32913 ft | 490 kts | 98° |
| 2026-05-06 13:33 | 23.11298 | 96.65272 | 32913 ft | 490 kts | 99° |
| 2026-05-06 13:33 | 23.10442 | 96.72615 | 32909 ft | 490 kts | 99° |
| 2026-05-06 13:34 | 23.09577 | 96.80006 | 32910 ft | 490 kts | 99° |
| 2026-05-06 13:34 | 23.08715 | 96.87345 | 32910 ft | 490 kts | 99° |
| 2026-05-06 13:35 | 23.07846 | 96.94715 | 32910 ft | 490 kts | 99° |
| 2026-05-06 13:35 | 23.06979 | 97.02037 | 32911 ft | 491 kts | 99° |
| 2026-05-06 13:36 | 23.06105 | 97.09386 | 32911 ft | 491 kts | 99° |
| 2026-05-06 13:36 | 23.05224 | 97.16768 | 32911 ft | 492 kts | 99° |
| 2026-05-06 13:37 | 23.04339 | 97.24153 | 32907 ft | 492 kts | 99° |
| 2026-05-06 13:37 | 23.03450 | 97.31538 | 32891 ft | 491 kts | 99° |
| 2026-05-06 13:38 | 23.02563 | 97.38882 | 32874 ft | 490 kts | 99° |
| 2026-05-06 13:38 | 23.01668 | 97.46256 | 32859 ft | 489 kts | 99° |
| 2026-05-06 13:39 | 23.00780 | 97.53550 | 32858 ft | 488 kts | 99° |
| 2026-05-06 13:39 | 22.99884 | 97.60883 | 32859 ft | 487 kts | 99° |
| 2026-05-06 13:40 | 22.98990 | 97.68167 | 32855 ft | 486 kts | 99° |
| 2026-05-06 13:40 | 22.98774 | 97.75504 | 32862 ft | 487 kts | 84° |
| 2026-05-06 13:41 | 23.00542 | 97.82636 | 32861 ft | 491 kts | 70° |
| 2026-05-06 13:41 | 23.02940 | 97.89565 | 32856 ft | 493 kts | 70° |
| 2026-05-06 13:42 | 23.05347 | 97.96584 | 32856 ft | 495 kts | 70° |
| 2026-05-06 13:42 | 23.07755 | 98.03625 | 32857 ft | 494 kts | 70° |
| 2026-05-06 13:43 | 23.10146 | 98.10634 | 32857 ft | 494 kts | 70° |
| 2026-05-06 13:43 | 23.12526 | 98.17624 | 32857 ft | 494 kts | 70° |
| 2026-05-06 13:44 | 23.14919 | 98.24663 | 32858 ft | 494 kts | 70° |
| 2026-05-06 13:44 | 23.17296 | 98.31664 | 32858 ft | 494 kts | 70° |
| 2026-05-06 13:45 | 23.19680 | 98.38702 | 32859 ft | 494 kts | 70° |
| 2026-05-06 13:45 | 23.23250 | 98.49259 | 32859 ft | 494 kts | 70° |
| 2026-05-06 13:46 | 23.25606 | 98.56242 | 32860 ft | 494 kts | 70° |
| 2026-05-06 13:46 | 23.27970 | 98.63260 | 32860 ft | 494 kts | 70° |
| 2026-05-06 13:47 | 23.30334 | 98.70289 | 32855 ft | 494 kts | 70° |
| 2026-05-06 13:47 | 23.32692 | 98.77313 | 32856 ft | 494 kts | 70° |
| 2026-05-06 13:48 | 23.35050 | 98.84347 | 32856 ft | 494 kts | 70° |
| 2026-05-06 13:48 | 23.37385 | 98.91331 | 32857 ft | 494 kts | 71° |
| 2026-05-06 13:49 | 23.39606 | 98.98379 | 32857 ft | 491 kts | 72° |
| 2026-05-06 13:49 | 23.41807 | 99.05416 | 32858 ft | 489 kts | 72° |
| 2026-05-06 13:50 | 23.43984 | 99.12386 | 32858 ft | 487 kts | 72° |
| 2026-05-06 13:50 | 23.46166 | 99.19383 | 32858 ft | 487 kts | 72° |
| 2026-05-06 13:51 | 23.48338 | 99.26360 | 32858 ft | 487 kts | 72° |
| 2026-05-06 13:51 | 23.50508 | 99.33342 | 32859 ft | 487 kts | 72° |
| 2026-05-06 13:52 | 23.52755 | 99.40278 | 32860 ft | 487 kts | 66° |
| 2026-05-06 13:52 | 23.55968 | 99.46764 | 32877 ft | 488 kts | 60° |
| 2026-05-06 13:53 | 23.59307 | 99.53199 | 32922 ft | 488 kts | 60° |
| 2026-05-06 13:53 | 23.62656 | 99.59632 | 32994 ft | 488 kts | 60° |
| 2026-05-06 13:54 | 23.66006 | 99.66067 | 33065 ft | 488 kts | 61° |
| 2026-05-06 13:54 | 23.69359 | 99.72510 | 33100 ft | 488 kts | 61° |
| 2026-05-06 13:55 | 23.72695 | 99.78931 | 33101 ft | 488 kts | 61° |
| 2026-05-06 13:55 | 23.76039 | 99.85373 | 33101 ft | 488 kts | 61° |
| 2026-05-06 13:56 | 23.79375 | 99.91810 | 33101 ft | 488 kts | 61° |
| 2026-05-06 13:56 | 23.82684 | 99.98202 | 33102 ft | 488 kts | 61° |
| 2026-05-06 13:57 | 23.86020 | 100.04656 | 33102 ft | 488 kts | 61° |
| 2026-05-06 13:57 | 23.89354 | 100.11114 | 33102 ft | 488 kts | 61° |
| 2026-05-06 13:58 | 23.92660 | 100.17525 | 33103 ft | 488 kts | 61° |
| 2026-05-06 13:58 | 23.95979 | 100.23972 | 33103 ft | 488 kts | 61° |
| 2026-05-06 13:59 | 23.99313 | 100.30454 | 33103 ft | 488 kts | 61° |
| 2026-05-06 13:59 | 24.02612 | 100.36879 | 33104 ft | 488 kts | 61° |
| 2026-05-06 14:00 | 24.05936 | 100.43360 | 33104 ft | 488 kts | 61° |
| 2026-05-06 14:00 | 24.09240 | 100.49811 | 33107 ft | 492 kts | 61° |
| 2026-05-06 14:01 | 24.12625 | 100.56441 | 33103 ft | 502 kts | 61° |
| 2026-05-06 14:01 | 24.15978 | 100.63120 | 33102 ft | 501 kts | 61° |
| 2026-05-06 14:02 | 24.19278 | 100.69701 | 33100 ft | 506 kts | 62° |
| 2026-05-06 14:02 | 24.22661 | 100.76459 | 33099 ft | 506 kts | 62° |
| 2026-05-06 14:03 | 24.26033 | 100.83205 | 33099 ft | 505 kts | 62° |
| 2026-05-06 14:03 | 24.28826 | 100.88798 | 33099 ft | 501 kts | 61° |
| 2026-05-06 14:04 | 24.32718 | 100.96605 | 33017 ft | 501 kts | 61° |
| 2026-05-06 14:04 | 24.36056 | 101.03308 | 33020 ft | 501 kts | 61° |
| 2026-05-06 14:05 | 24.39377 | 101.09984 | 33020 ft | 501 kts | 61° |
| 2026-05-06 14:05 | 24.42722 | 101.16723 | 33020 ft | 501 kts | 61° |
| 2026-05-06 14:06 | 24.46033 | 101.23402 | 33020 ft | 501 kts | 61° |
| 2026-05-06 14:06 | 24.49369 | 101.30141 | 33021 ft | 501 kts | 61° |
| 2026-05-06 14:07 | 24.52701 | 101.36880 | 33021 ft | 501 kts | 61° |
| 2026-05-06 14:07 | 24.56026 | 101.43617 | 33021 ft | 501 kts | 61° |
| 2026-05-06 14:08 | 24.59337 | 101.50333 | 33022 ft | 501 kts | 61° |
| 2026-05-06 14:08 | 24.61858 | 101.57407 | 33029 ft | 500 kts | 78° |
| 2026-05-06 14:09 | 24.62638 | 101.64996 | 33023 ft | 499 kts | 86° |
| 2026-05-06 14:09 | 24.63065 | 101.72465 | 33019 ft | 499 kts | 88° |
| 2026-05-06 14:10 | 24.63451 | 101.80065 | 33019 ft | 499 kts | 88° |
| 2026-05-06 14:10 | 24.63819 | 101.87711 | 33020 ft | 499 kts | 88° |
| 2026-05-06 14:11 | 24.64175 | 101.95319 | 33020 ft | 499 kts | 88° |
| 2026-05-06 14:11 | 24.64526 | 102.02943 | 33020 ft | 499 kts | 88° |
| 2026-05-06 14:12 | 24.64870 | 102.10519 | 33020 ft | 499 kts | 88° |
| 2026-05-06 14:12 | 24.65210 | 102.18111 | 33021 ft | 499 kts | 88° |
| 2026-05-06 14:13 | 24.65547 | 102.25703 | 33021 ft | 499 kts | 88° |
| 2026-05-06 14:13 | 24.65882 | 102.33330 | 33021 ft | 499 kts | 88° |
| 2026-05-06 14:14 | 24.66213 | 102.40970 | 33022 ft | 499 kts | 88° |
| 2026-05-06 14:14 | 24.66539 | 102.48593 | 33022 ft | 499 kts | 88° |
| 2026-05-06 14:15 | 24.66862 | 102.56198 | 33022 ft | 499 kts | 88° |
| 2026-05-06 14:15 | 24.67323 | 102.63796 | 33022 ft | 499 kts | 86° |
| 2026-05-06 14:16 | 24.67802 | 102.71447 | 33019 ft | 499 kts | 87° |
| 2026-05-06 14:16 | 24.67845 | 102.79068 | 33025 ft | 497 kts | 99° |
| 2026-05-06 14:17 | 24.66066 | 102.86372 | 33023 ft | 495 kts | 111° |
| 2026-05-06 14:17 | 24.63751 | 102.93440 | 33020 ft | 494 kts | 111° |
| 2026-05-06 14:18 | 24.61389 | 103.00503 | 33020 ft | 495 kts | 112° |
| 2026-05-06 14:18 | 24.59003 | 103.07570 | 33020 ft | 495 kts | 112° |
| 2026-05-06 14:19 | 24.56606 | 103.14667 | 33020 ft | 496 kts | 110° |
| 2026-05-06 14:19 | 24.55302 | 103.22098 | 33025 ft | 499 kts | 93° |
| 2026-05-06 14:20 | 24.55102 | 103.29777 | 32986 ft | 499 kts | 92° |
| 2026-05-06 14:20 | 24.54937 | 103.37357 | 33036 ft | 497 kts | 92° |
| 2026-05-06 14:21 | 24.54858 | 103.41161 | 33162 ft | 500 kts | 92° |
| 2026-05-06 14:21 | 24.54779 | 103.45018 | 33157 ft | 501 kts | 91° |
| 2026-05-06 14:21 | 24.54623 | 103.52656 | 33157 ft | 499 kts | 91° |
| 2026-05-06 14:22 | 24.54465 | 103.60300 | 33157 ft | 500 kts | 91° |
| 2026-05-06 14:22 | 24.54304 | 103.67895 | 33154 ft | 499 kts | 92° |
| 2026-05-06 14:23 | 24.53815 | 103.75495 | 33159 ft | 498 kts | 102° |
| 2026-05-06 14:23 | 24.52308 | 103.82929 | 33154 ft | 498 kts | 104° |
| 2026-05-06 14:24 | 24.50751 | 103.90353 | 33155 ft | 498 kts | 104° |
| 2026-05-06 14:24 | 24.49177 | 103.97772 | 33155 ft | 498 kts | 104° |
| 2026-05-06 14:25 | 24.47599 | 104.05167 | 33155 ft | 498 kts | 104° |
| 2026-05-06 14:25 | 24.46011 | 104.12577 | 33155 ft | 498 kts | 104° |
| 2026-05-06 14:26 | 24.44422 | 104.19977 | 33156 ft | 498 kts | 104° |
| 2026-05-06 14:26 | 24.42823 | 104.27398 | 33156 ft | 498 kts | 104° |
| 2026-05-06 14:27 | 24.41233 | 104.34759 | 33223 ft | 501 kts | 104° |
| 2026-05-06 14:27 | 24.40431 | 104.38465 | 33674 ft | 499 kts | 104° |
| 2026-05-06 14:27 | 24.39635 | 104.42141 | 34063 ft | 498 kts | 104° |
| 2026-05-06 14:28 | 24.38833 | 104.45837 | 34418 ft | 497 kts | 104° |
| 2026-05-06 14:28 | 24.38037 | 104.49506 | 34795 ft | 496 kts | 104° |
| 2026-05-06 14:28 | 24.37236 | 104.53190 | 35151 ft | 495 kts | 104° |
| 2026-05-06 14:28 | 24.36449 | 104.56804 | 35485 ft | 494 kts | 104° |
| 2026-05-06 14:29 | 24.35653 | 104.60457 | 35796 ft | 493 kts | 104° |
| 2026-05-06 14:29 | 24.34856 | 104.64107 | 36078 ft | 492 kts | 104° |
| 2026-05-06 14:29 | 24.34062 | 104.67742 | 36326 ft | 491 kts | 104° |
| 2026-05-06 14:29 | 24.33260 | 104.71410 | 36536 ft | 491 kts | 104° |
| 2026-05-06 14:30 | 24.32465 | 104.75037 | 36723 ft | 491 kts | 104° |
| 2026-05-06 14:30 | 24.31667 | 104.78677 | 36900 ft | 491 kts | 104° |
| 2026-05-06 14:30 | 24.30878 | 104.82269 | 37064 ft | 491 kts | 104° |
| 2026-05-06 14:30 | 24.30079 | 104.85903 | 37216 ft | 491 kts | 104° |
| 2026-05-06 14:31 | 24.28474 | 104.93188 | 37254 ft | 491 kts | 104° |
| 2026-05-06 14:31 | 24.26888 | 105.00373 | 37255 ft | 489 kts | 104° |
| 2026-05-06 14:32 | 24.25293 | 105.07581 | 37255 ft | 487 kts | 104° |
| 2026-05-06 14:32 | 24.23698 | 105.14771 | 37255 ft | 486 kts | 103° |
| 2026-05-06 14:33 | 24.22103 | 105.21925 | 37256 ft | 486 kts | 104° |
| 2026-05-06 14:33 | 24.20375 | 105.29089 | 37256 ft | 486 kts | 104° |
| 2026-05-06 14:34 | 24.18646 | 105.36231 | 37256 ft | 486 kts | 104° |
| 2026-05-06 14:34 | 24.16923 | 105.43332 | 37214 ft | 486 kts | 104° |
| 2026-05-06 14:35 | 24.15183 | 105.50493 | 37157 ft | 486 kts | 104° |
| 2026-05-06 14:35 | 24.13443 | 105.57636 | 37093 ft | 486 kts | 104° |
| 2026-05-06 14:36 | 24.11711 | 105.64727 | 37050 ft | 486 kts | 104° |
| 2026-05-06 14:36 | 24.10009 | 105.71915 | 37050 ft | 486 kts | 102° |
| 2026-05-06 14:37 | 24.08603 | 105.79107 | 37055 ft | 486 kts | 102° |
| 2026-05-06 14:37 | 24.07184 | 105.86291 | 37064 ft | 486 kts | 102° |
| 2026-05-06 14:38 | 24.05755 | 105.93492 | 37050 ft | 486 kts | 102° |
| 2026-05-06 14:38 | 24.04315 | 106.00723 | 37031 ft | 486 kts | 102° |
| 2026-05-06 14:39 | 24.02881 | 106.07903 | 37008 ft | 486 kts | 102° |
| 2026-05-06 14:39 | 24.01434 | 106.15130 | 36993 ft | 486 kts | 102° |
| 2026-05-06 14:40 | 23.99993 | 106.22310 | 36987 ft | 486 kts | 102° |
| 2026-05-06 14:40 | 23.98539 | 106.29531 | 36986 ft | 486 kts | 102° |
| 2026-05-06 14:41 | 23.97093 | 106.36698 | 36986 ft | 486 kts | 102° |
| 2026-05-06 14:41 | 23.95638 | 106.43894 | 36986 ft | 486 kts | 102° |
| 2026-05-06 14:42 | 23.94179 | 106.51086 | 36986 ft | 486 kts | 102° |
| 2026-05-06 14:42 | 23.92717 | 106.58302 | 36986 ft | 486 kts | 101° |
| 2026-05-06 14:43 | 23.92000 | 106.65626 | 36987 ft | 486 kts | 94° |
| 2026-05-06 14:43 | 23.91500 | 106.72959 | 36984 ft | 486 kts | 94° |
| 2026-05-06 14:44 | 23.91006 | 106.80306 | 36985 ft | 486 kts | 94° |
| 2026-05-06 14:45 | 23.90264 | 106.91328 | 36985 ft | 486 kts | 94° |
| 2026-05-06 14:45 | 23.89766 | 106.98682 | 36984 ft | 486 kts | 93° |
| 2026-05-06 14:46 | 23.89267 | 107.06012 | 36984 ft | 485 kts | 93° |
| 2026-05-06 14:46 | 23.88767 | 107.13316 | 36984 ft | 485 kts | 93° |
| 2026-05-06 14:47 | 23.88261 | 107.20639 | 36984 ft | 485 kts | 93° |
| 2026-05-06 14:47 | 23.87751 | 107.27976 | 36984 ft | 485 kts | 93° |
| 2026-05-06 14:48 | 23.87239 | 107.35292 | 36984 ft | 485 kts | 93° |
| 2026-05-06 14:48 | 23.86721 | 107.42632 | 36985 ft | 485 kts | 93° |
| 2026-05-06 14:49 | 23.86202 | 107.49951 | 36985 ft | 485 kts | 93° |
| 2026-05-06 14:49 | 23.85678 | 107.57280 | 36985 ft | 485 kts | 93° |
| 2026-05-06 14:50 | 23.85153 | 107.64571 | 36985 ft | 485 kts | 93° |
| 2026-05-06 14:50 | 23.84623 | 107.71907 | 36983 ft | 485 kts | 93° |
| 2026-05-06 14:51 | 23.84089 | 107.79233 | 36983 ft | 485 kts | 93° |
| 2026-05-06 14:51 | 23.83580 | 107.86565 | 36984 ft | 485 kts | 92° |
| 2026-05-06 14:52 | 23.83220 | 107.93870 | 36984 ft | 485 kts | 92° |
| 2026-05-06 14:52 | 23.82847 | 108.01260 | 36984 ft | 485 kts | 92° |
| 2026-05-06 14:53 | 23.82475 | 108.08558 | 36984 ft | 485 kts | 92° |
| 2026-05-06 14:53 | 23.82095 | 108.15915 | 36984 ft | 485 kts | 92° |
| 2026-05-06 14:54 | 23.81689 | 108.23268 | 36984 ft | 485 kts | 92° |
| 2026-05-06 14:54 | 23.81277 | 108.30633 | 36984 ft | 485 kts | 92° |
| 2026-05-06 14:55 | 23.80864 | 108.37973 | 36985 ft | 485 kts | 92° |
| 2026-05-06 14:55 | 23.80444 | 108.45358 | 36985 ft | 485 kts | 92° |
| 2026-05-06 14:56 | 23.80021 | 108.52733 | 36985 ft | 485 kts | 92° |
| 2026-05-06 14:56 | 23.79598 | 108.60055 | 36985 ft | 485 kts | 92° |
| 2026-05-06 14:57 | 23.79168 | 108.67439 | 36983 ft | 485 kts | 92° |
| 2026-05-06 14:57 | 23.78734 | 108.74830 | 36983 ft | 485 kts | 92° |
| 2026-05-06 14:58 | 23.78299 | 108.82182 | 36983 ft | 485 kts | 92° |
| 2026-05-06 14:58 | 23.77860 | 108.89520 | 36984 ft | 485 kts | 92° |
| 2026-05-06 14:59 | 23.77416 | 108.96913 | 36984 ft | 485 kts | 92° |
| 2026-05-06 14:59 | 23.76972 | 109.04215 | 36984 ft | 484 kts | 92° |
| 2026-05-06 15:00 | 23.76520 | 109.11598 | 36984 ft | 483 kts | 92° |
| 2026-05-06 15:00 | 23.75456 | 109.18824 | 36986 ft | 485 kts | 100° |
| 2026-05-06 15:01 | 23.74031 | 109.26046 | 36988 ft | 484 kts | 100° |
| 2026-05-06 15:01 | 23.72590 | 109.33245 | 36997 ft | 484 kts | 100° |
| 2026-05-06 15:02 | 23.71146 | 109.40412 | 37005 ft | 484 kts | 101° |
| 2026-05-06 15:02 | 23.69685 | 109.47629 | 37012 ft | 484 kts | 101° |
| 2026-05-06 15:03 | 23.68220 | 109.54848 | 37012 ft | 484 kts | 101° |
| 2026-05-06 15:03 | 23.66760 | 109.62019 | 37011 ft | 484 kts | 101° |
| 2026-05-06 15:04 | 23.65277 | 109.69221 | 37010 ft | 484 kts | 101° |
| 2026-05-06 15:04 | 23.63793 | 109.76415 | 37011 ft | 484 kts | 101° |
| 2026-05-06 15:05 | 23.62302 | 109.83623 | 37011 ft | 484 kts | 101° |
| 2026-05-06 15:05 | 23.60808 | 109.90829 | 37011 ft | 484 kts | 101° |
| 2026-05-06 15:06 | 23.59317 | 109.98000 | 37011 ft | 484 kts | 101° |
| 2026-05-06 15:06 | 23.57821 | 110.05179 | 37011 ft | 484 kts | 101° |
| 2026-05-06 15:07 | 23.56326 | 110.12337 | 37012 ft | 484 kts | 101° |
| 2026-05-06 15:07 | 23.54824 | 110.19511 | 37012 ft | 484 kts | 101° |
| 2026-05-06 15:08 | 23.53322 | 110.26666 | 37012 ft | 484 kts | 101° |
| 2026-05-06 15:08 | 23.51821 | 110.33802 | 37012 ft | 484 kts | 101° |
| 2026-05-06 15:09 | 23.50349 | 110.40959 | 37012 ft | 484 kts | 101° |
| 2026-05-06 15:09 | 23.48893 | 110.48128 | 37012 ft | 484 kts | 101° |
| 2026-05-06 15:10 | 23.47431 | 110.55307 | 37013 ft | 484 kts | 101° |
| 2026-05-06 15:10 | 23.45971 | 110.62453 | 37013 ft | 484 kts | 101° |
| 2026-05-06 15:11 | 23.44511 | 110.69587 | 37011 ft | 484 kts | 101° |
| 2026-05-06 15:11 | 23.43020 | 110.76742 | 37012 ft | 484 kts | 101° |
| 2026-05-06 15:12 | 23.41519 | 110.83861 | 37012 ft | 484 kts | 101° |
| 2026-05-06 15:12 | 23.40018 | 110.90964 | 37012 ft | 484 kts | 101° |
| 2026-05-06 15:13 | 23.38512 | 110.98075 | 37012 ft | 481 kts | 101° |
| 2026-05-06 15:13 | 23.37010 | 111.05151 | 37012 ft | 479 kts | 101° |
| 2026-05-06 15:14 | 23.35515 | 111.12177 | 37013 ft | 477 kts | 101° |
| 2026-05-06 15:14 | 23.34065 | 111.19160 | 37028 ft | 476 kts | 101° |
| 2026-05-06 15:15 | 23.32631 | 111.26186 | 37045 ft | 477 kts | 101° |
| 2026-05-06 15:15 | 23.31189 | 111.33225 | 36970 ft | 477 kts | 101° |
| 2026-05-06 15:15 | 23.30476 | 111.36692 | 36934 ft | 456 kts | 101° |
| 2026-05-06 15:16 | 23.29803 | 111.39960 | 36690 ft | 436 kts | 101° |
| 2026-05-06 15:16 | 23.29139 | 111.43198 | 35707 ft | 444 kts | 101° |
| 2026-05-06 15:16 | 23.28471 | 111.46447 | 35017 ft | 444 kts | 101° |
| 2026-05-06 15:16 | 23.27796 | 111.49725 | 34309 ft | 445 kts | 101° |
| 2026-05-06 15:17 | 23.27124 | 111.52978 | 33529 ft | 447 kts | 101° |
| 2026-05-06 15:17 | 23.26433 | 111.56256 | 32747 ft | 449 kts | 101° |
| 2026-05-06 15:17 | 23.25731 | 111.59578 | 31944 ft | 451 kts | 101° |
| 2026-05-06 15:17 | 23.25029 | 111.62899 | 31125 ft | 454 kts | 101° |
| 2026-05-06 15:18 | 23.24327 | 111.66214 | 30295 ft | 456 kts | 101° |
| 2026-05-06 15:18 | 23.23616 | 111.69572 | 29442 ft | 458 kts | 101° |
| 2026-05-06 15:18 | 23.22899 | 111.72945 | 28839 ft | 453 kts | 101° |
| 2026-05-06 15:18 | 23.22195 | 111.76260 | 28245 ft | 449 kts | 101° |
| 2026-05-06 15:19 | 23.21506 | 111.79497 | 27632 ft | 445 kts | 101° |
| 2026-05-06 15:19 | 23.20806 | 111.82793 | 27035 ft | 441 kts | 101° |
| 2026-05-06 15:19 | 23.20137 | 111.86011 | 26434 ft | 438 kts | 101° |
| 2026-05-06 15:19 | 23.19467 | 111.89241 | 25838 ft | 434 kts | 101° |
| 2026-05-06 15:20 | 23.18816 | 111.92375 | 25255 ft | 430 kts | 101° |
| 2026-05-06 15:20 | 23.18153 | 111.95563 | 24664 ft | 427 kts | 101° |
| 2026-05-06 15:20 | 23.17507 | 111.98664 | 24088 ft | 423 kts | 101° |
| 2026-05-06 15:20 | 23.16860 | 112.01766 | 23506 ft | 420 kts | 101° |
| 2026-05-06 15:21 | 23.16222 | 112.04820 | 22938 ft | 416 kts | 101° |
| 2026-05-06 15:21 | 23.15584 | 112.07876 | 22365 ft | 413 kts | 101° |
| 2026-05-06 15:21 | 23.14950 | 112.10905 | 21798 ft | 410 kts | 101° |
| 2026-05-06 15:21 | 23.14321 | 112.13914 | 21236 ft | 406 kts | 101° |
| 2026-05-06 15:22 | 23.13705 | 112.16851 | 20682 ft | 403 kts | 101° |
| 2026-05-06 15:22 | 23.13080 | 112.19831 | 20124 ft | 400 kts | 101° |
| 2026-05-06 15:22 | 23.12464 | 112.22766 | 19572 ft | 397 kts | 101° |
| 2026-05-06 15:22 | 23.11861 | 112.25634 | 19031 ft | 394 kts | 101° |
| 2026-05-06 15:23 | 23.11254 | 112.28519 | 18490 ft | 391 kts | 101° |
| 2026-05-06 15:23 | 23.10652 | 112.31380 | 17947 ft | 388 kts | 101° |
| 2026-05-06 15:23 | 23.10053 | 112.34219 | 17412 ft | 385 kts | 101° |
| 2026-05-06 15:23 | 23.09459 | 112.37036 | 16883 ft | 382 kts | 101° |
| 2026-05-06 15:24 | 23.08863 | 112.39857 | 16344 ft | 379 kts | 101° |
| 2026-05-06 15:24 | 23.08281 | 112.42612 | 15830 ft | 376 kts | 102° |
| 2026-05-06 15:24 | 23.07696 | 112.45378 | 15299 ft | 374 kts | 102° |
| 2026-05-06 15:24 | 23.07152 | 112.48112 | 14791 ft | 370 kts | 97° |
| 2026-05-06 15:25 | 23.07005 | 112.50873 | 14261 ft | 367 kts | 89° |
| 2026-05-06 15:25 | 23.06996 | 112.53633 | 13755 ft | 364 kts | 89° |
| 2026-05-06 15:25 | 23.06980 | 112.56344 | 13250 ft | 362 kts | 89° |
| 2026-05-06 15:25 | 23.06968 | 112.59090 | 12745 ft | 359 kts | 89° |
| 2026-05-06 15:26 | 23.06957 | 112.61783 | 12243 ft | 357 kts | 89° |
| 2026-05-06 15:26 | 23.06946 | 112.64437 | 11753 ft | 354 kts | 89° |
| 2026-05-06 15:26 | 23.06934 | 112.67098 | 11275 ft | 351 kts | 89° |
| 2026-05-06 15:26 | 23.06923 | 112.69725 | 10799 ft | 348 kts | 89° |